Huvudsida
METAR-TAF:

METAR-TAF

Flygplatser :

Bolzano, Italien

latitud: 46-28N, longitud: 011-20E, höjd: 262 m

Aktuellt väderrapport

Denna rapport gjordes för 26 minuter sedan, klockan 21:50 UTC
Vind 2 kt varierande vindriktning
Temperatur -3°C
Fuktighet 93%
Tryck 1027 hPa
Sikt 10 km eller mer
Inga moln under 1 500 m eller inga cumulonimbus

METAR: LIPB 052150Z VRB02KT CAVOK M03/M04 Q1027

Tid: 23:16 (22:16 UTC)

Väderprognos

Denna rapport gjordes för 5 timmar och 16 minuter sedan, klockan 17:00 UTC
Prognos gäller från 05 kl. 18 UTC till 06 kl. 18 UTC
Vind 4 kt varierande vindriktning
Sikt 10 km eller mer
Inga moln under 1 500 m eller inga cumulonimbus

TAF: LIPB 051700Z 0518/0618 VRB04KT CAVOK

Aktuella väderrapporter och prognoser från 4000 flygplatser (METAR- och TAF-rapporter).

De tillgängliga stationerna syns som gula och röda prickar på kartan.

För musen över prickarna för att se namnen på stationerna.

Klicka sedan för att få väderrapporter och prognoser.

För att ändra kartan: Klicka på de gröna knapparna med ett svart kors på för att zooma in; den gröna knappen med ett streck på för att zooma ut; eller på de gröna pilarna för angränsande kartor.


METAR-TAF: